Details From SBKP - Sao Paulo Viracopos
To SBRF - Recife Intl
Flight Number -
Tags decoded
Created
Modified
Stats Distance 1,138 nm / 2,108 km
Max Altitude 0 ft / 0 m
Waypoints 3
Social Downloads 5
Likes 0
Share

Download

Looking for another format? Having issues loading an existing format? Contact us
Advertisement - Login to hide

Notes

Requested: SBKP UTGER UZ23 BHZ KOKSU UZ14 OBDUD MOSMU SBRF Unmatched points: UTGER UZ23 KOKSU UZ14 OBDUD MOSMU

Route

SBKP BHZ SBRF

ID Type Via Altitude (ft/m) Position (lat/lon) Dist (leg/tot) Name
O SBKP APT - 0 / 0 -23.00738 / -47.13452 - / 0 nm Sao Paulo Viracopos
BHZ VOR - 0 / 0 -19.83577 / -44.00356 258 / 258 nm BELO HORIZONTE VOR-DME
O SBRF APT - 0 / 0 -8.12790 / -34.92298 879 / 1138 nm Recife Intl

Altitude Profile

Advertisement - Login to hide

Weather


0- 5 10 15 20 25 30 35+ Temperature / °C

Clouds and Precipitation
Forecast for 2022-05-29 00:00 UTC. Updated 2 hours ago

Ground ~20,000 ft ~40,000 ft Winds

SBKP

Details ICAO SBKP (VCP)
Name Campinas Viracopos Intl
Region Brazil
Timezone America/Sao_Paulo (UTC-3.0)
Stats Elevation 2,169 ft / 661 m (AMSL)
Location -23.007400° -47.134500°
Runways 1
Magnetic Variation 21.757° W

METAR

SBKP 282300Z 10005KT CAVOK 20/09 Q1018

Decode

TAF

TAF SBKP 281600Z 2818/2918 34010KT 9999 SCT035 TX27/2818Z TN14/2909Z BECMG 2820/2822 03005KT CAVOK BECMG 2912/2914 35012KT FEW040 RMK PGD

Decode

Departure Runways

ID Width Length Bearing (true/mag) Surface Threshold Overrun Markings Lighting
15 148 ft / 45 m 10,666 ft / 3,251 m 127.87° / 149.63° ASPHALT 0 ft / 0 m 171 ft / 52 m PREC-APP CENTERLINE EDGE THRESHOLD MALSR TDZ REIL-OMNI
33 148 ft / 45 m 10,666 ft / 3,251 m 307.86° / 329.62° ASPHALT 315 ft / 96 m 177 ft / 54 m PREC-APP CENTERLINE EDGE THRESHOLD TDZ REIL-OMNI

SBRF

Details ICAO SBRF (REC)
Name Recife-Guararapes Intl
Region Brazil
Timezone America/Recife (UTC-3.0)
Stats Elevation 33 ft / 10 m (AMSL)
Location -8.125470° -34.923500°
Runways 1
Magnetic Variation 21.950° W

METAR

SBRF 282300Z 21005KT 9999 FEW025 BKN100 23/22 Q1014

Decode

TAF

TAF SBRF 281500Z 2818/2918 15010KT 4000 RA SCT005 BKN010 BKN020 TN24/2908Z TX27/2918Z PROB40 2818/2821 3000 TSRA BKN007 FEW025CB BECMG 2822/2824 19010KT 3000 RA BR SCT005 BKN010 BECMG 2913/2915 16010KT 5000 RA BKN012 BKN025 RMK PGU

Decode

Destination Runways

ID Width Length Bearing (true/mag) Surface Threshold Overrun Markings Lighting
18 148 ft / 45 m 10,906 ft / 3,324 m 161.89° / 183.84° ASPHALT 978 ft / 298 m 0 ft / 0 m PREC-APP EDGE THRESHOLD ALSF-I REIL-OMNI
36 148 ft / 45 m 10,906 ft / 3,324 m 341.89° / 3.84° ASPHALT 0 ft / 0 m 528 ft / 161 m PREC-APP EDGE THRESHOLD REIL-OMNI

Approach Navaids

Runway Type Ident Frequency Range Bearing (true/mag) Slope Elevation
18 LOC-ILS IRF 110.30 MHz 18 nm / 33 km 161.89° / 183.84 ° - 33 ft / 10 m (AMSL)
18 GS IRF 110.30 MHz 10 nm / 19 km 162.89° / 184.84 ° 3.00° 33 ft / 10 m (AMSL)
18 OM OM - - 161.91° / 183.86 ° - 33 ft / 10 m (AMSL)

Popular Alternatives